Strona główna
METAR-TAF:

METAR-TAF

Lotnisko :

Port lotniczy Sultan Aji Muhammad Sulaiman

Balikpapan, Indonezja

Szerokość geograficzna: 01-16-06S, Długość geograficzna: 116-53-40E, wysokość: 4 m

METAR: brakujący

czas: 19:05 (12:05 UTC)

Prognoza

Raport powstał 1 godzina i 5 minut temu, godzina 11:00 UTC
Prognoza ważna od 24 godzina 12 UTC do 25 godzina 18 UTC
Wiatr 6 kt od zachodnio-północny zachód
Widzialność 10 km lub więcej
Mało chmury na wysokości 2000 ft
Stopniowe zmiany
od 24 godzina 15 UTC do 24 godzina 17 UTC
Wiatr 5 kt od południe
Widzialność: 9000 m

TAF: WALL 241100Z 2412/2518 29006KT 9999 FEW020 BECMG 2415/2417 19005KT 9000

Obserwacja i prognoza pogody dla ponad 4000 lotnisk (raport METAR i TAF).

Dostępne stacje oznaczono żółtymi i czerwonymi punktami na mapie.

Najedź kursorem aby zobaczyć nazwę stacji.

Kliknij aby zobaczyć obserwacje i prognozy pogody.

Aby zmienić mapę: kliknij na zielony przycisk z czarnym krzyżykiem, aby powiększyć; na zielony przycisk z myślnikiem, aby pomniejszyć; na zielone strzałki, aby przejść do map sąsiednich.


METAR-TAF: